Line Lexington, Pennsylvania
Current Conditions -  °F | °C
As of 6:54 PM on Saturday 22 Nov 2014 (Local Time) from KDYL Reporting Station
Overcast Overcast  
Wind Chill: 34°   Ceiling: 6500
Heat Index: 39°   Visibility: 10mi
Dew Point: 21°   Wind: 7mph
Humidity: 49%   Direction: 220°SW
Pressure: 30.26"   Gusts: NA
Location:  40.29°N, 75.26°W
Report Text: KDYL 222354Z AUTO 22006KT 10SM BKN065 BKN080 OVC095 04/M06 A3026 RMK AO2 RAB2257E08B28E41 SLP256 P0000 60000 T00391061 10050 20039 58004
Loading
Personal Weather Stations






























Interactive Weather Map New forecast layout! Learn more

10-Day Weather Forecast

Advertisements
Track Severe Weather on mobile